Time;durP1;ratioP1;P1;durP2;ratioP2;P2;SDS_P1;SDS_P2;PMS_P1;PMS_P2;Temp;Humidity;BMP_temperature;BMP_pressure;BME280_temperature;BME280_humidity;BME280_pressure;Samples;Min_cycle;Max_cycle;Signal;HPM_P1;HPM_P2
2021/01/05 00:02:12;;;;;;;6.05;3.42;;;1.10;99.90;;;;;;5051086;28;20573;-60
2021/01/05 00:04:39;;;;;;;4.93;3.13;;;1.10;99.90;;;;;;5053226;28;20705;-60
2021/01/05 00:07:05;;;;;;;5.70;3.53;;;1.10;99.90;;;;;;5053351;28;20205;-60
2021/01/05 00:09:32;;;;;;;6.50;3.47;;;1.10;99.90;;;;;;5053312;28;20175;-60
2021/01/05 00:12:03;;;;;;;6.60;3.17;;;1.10;99.90;;;;;;5053580;28;20187;-60
2021/01/05 00:14:29;;;;;;;6.68;3.83;;;1.20;99.90;;;;;;5052694;28;20162;-60
2021/01/05 00:16:56;;;;;;;4.53;3.15;;;1.10;99.90;;;;;;5053986;28;20187;-60
2021/01/05 00:19:22;;;;;;;5.13;3.25;;;1.10;99.90;;;;;;5052959;28;20198;-60
2021/01/05 00:21:49;;;;;;;6.90;3.53;;;1.10;99.90;;;;;;5053169;28;20201;-60
2021/01/05 00:24:15;;;;;;;5.13;3.08;;;1.10;99.90;;;;;;5053613;28;20167;-60
2021/01/05 00:26:41;;;;;;;6.05;3.42;;;1.10;99.90;;;;;;5053210;28;20287;-60
2021/01/05 00:29:08;;;;;;;6.35;3.40;;;1.20;99.90;;;;;;5053422;28;20174;-60
2021/01/05 00:31:34;;;;;;;4.97;3.28;;;1.20;99.90;;;;;;5051712;28;20190;-60
2021/01/05 00:34:00;;;;;;;5.82;3.20;;;1.20;99.90;;;;;;5051489;28;20170;-60
2021/01/05 00:36:27;;;;;;;5.03;3.20;;;1.20;99.90;;;;;;5052497;28;20502;-60
2021/01/05 00:38:53;;;;;;;4.63;2.88;;;1.10;99.90;;;;;;5051572;28;20202;-60
2021/01/05 00:41:22;;;;;;;5.75;2.97;;;1.10;99.90;;;;;;5052668;28;20170;-60
2021/01/05 00:43:48;;;;;;;5.35;3.45;;;1.10;99.90;;;;;;5052356;28;20178;-60
2021/01/05 00:46:15;;;;;;;6.13;3.33;;;1.10;99.90;;;;;;5052696;28;20643;-60
2021/01/05 00:48:44;;;;;;;4.85;2.97;;;1.10;99.90;;;;;;5051571;28;20186;-60
2021/01/05 00:51:11;;;;;;;4.55;2.95;;;1.10;99.90;;;;;;5051622;28;20175;-60
2021/01/05 00:53:37;;;;;;;5.50;3.50;;;1.10;99.90;;;;;;5050136;28;20194;-60
2021/01/05 00:56:04;;;;;;;8.48;3.47;;;1.10;99.90;;;;;;5052787;28;20655;-60
2021/01/05 00:58:30;;;;;;;5.63;3.30;;;1.10;99.90;;;;;;5052626;28;20163;-60
2021/01/05 01:00:56;;;;;;;6.72;2.97;;;1.10;99.90;;;;;;5051483;28;20174;-60
2021/01/05 01:03:23;;;;;;;4.78;3.15;;;1.10;99.90;;;;;;5051134;28;20240;-60
2021/01/05 01:05:49;;;;;;;5.57;3.15;;;1.10;99.90;;;;;;5051876;28;20187;-60
2021/01/05 01:08:16;;;;;;;6.47;3.15;;;1.10;99.90;;;;;;5052067;28;20540;-60
2021/01/05 01:10:43;;;;;;;4.35;2.90;;;1.10;99.90;;;;;;5050966;28;20177;-60
2021/01/05 01:13:10;;;;;;;5.00;3.08;;;1.10;99.90;;;;;;5052252;28;20527;-60
2021/01/05 01:15:36;;;;;;;5.50;3.38;;;1.10;99.90;;;;;;5051687;28;20187;-60
2021/01/05 01:18:03;;;;;;;6.38;3.22;;;1.10;99.90;;;;;;5052091;28;20178;-60
2021/01/05 01:20:34;;;;;;;5.22;3.13;;;1.10;99.90;;;;;;5052400;28;20662;-60
2021/01/05 01:23:00;;;;;;;7.50;3.58;;;1.10;99.90;;;;;;5050734;28;20210;-60
2021/01/05 01:25:26;;;;;;;7.43;3.10;;;1.10;99.90;;;;;;5051959;28;20569;-60
2021/01/05 01:27:52;;;;;;;5.15;2.88;;;1.10;99.90;;;;;;5051794;28;20527;-60
2021/01/05 01:30:19;;;;;;;5.03;2.70;;;1.10;99.90;;;;;;5052001;28;20177;-60
2021/01/05 01:32:46;;;;;;;4.97;2.75;;;1.10;99.90;;;;;;5051438;28;20190;-60
2021/01/05 01:35:12;;;;;;;5.55;3.13;;;1.10;99.90;;;;;;5051964;28;20174;-60
2021/01/05 01:37:38;;;;;;;5.13;3.15;;;1.10;99.90;;;;;;5052138;28;20178;-60
2021/01/05 01:40:06;;;;;;;5.97;3.20;;;1.10;99.90;;;;;;5051794;28;20620;-60
2021/01/05 01:42:32;;;;;;;5.20;3.08;;;1.10;99.90;;;;;;5049617;28;20218;-60
2021/01/05 01:44:58;;;;;;;4.70;2.88;;;1.10;99.90;;;;;;5051870;28;20191;-60
2021/01/05 01:47:36;;;;;;;4.43;2.75;;;1.10;99.90;;;;;;5051618;28;20179;-60
2021/01/05 01:50:16;;;;;;;4.72;3.08;;;1.10;99.90;;;;;;5052132;28;20538;-60
2021/01/05 01:53:04;;;;;;;5.55;3.38;;;1.10;99.90;;;;;;5033751;28;20198;-60
2021/01/05 01:55:30;;;;;;;5.60;3.00;;;1.10;99.90;;;;;;5051619;28;20178;-60
2021/01/05 01:58:10;;;;;;;5.88;3.30;;;1.00;99.90;;;;;;5051266;28;20179;-60
2021/01/05 02:00:45;;;;;;;7.38;3.20;;;1.00;99.90;;;;;;5050076;28;20166;-60
2021/01/05 02:03:34;;;;;;;5.07;3.10;;;1.10;99.90;;;;;;5042406;28;20205;-60
2021/01/05 02:06:00;;;;;;;3.97;2.67;;;1.10;99.90;;;;;;5050170;28;20173;-60
2021/01/05 02:08:52;;;;;;;5.82;3.22;;;1.10;99.90;;;;;;5049415;28;20545;-60
2021/01/05 02:11:38;;;;;;;4.88;2.50;;;1.10;99.90;;;;;;5051229;28;20167;-60
2021/01/05 02:14:33;;;;;;;5.82;3.03;;;1.10;99.90;;;;;;5036344;28;20166;-60
2021/01/05 02:17:16;;;;;;;5.30;3.03;;;1.10;99.90;;;;;;5051235;28;20171;-60
2021/01/05 02:19:45;;;;;;;4.60;3.05;;;1.10;99.90;;;;;;5049353;28;20210;-60
2021/01/05 02:22:26;;;;;;;5.22;2.90;;;1.00;99.90;;;;;;5050376;28;20667;-60
2021/01/05 02:25:22;;;;;;;6.35;3.35;;;1.00;99.90;;;;;;5051888;28;20663;-60
2021/01/05 02:27:51;;;;;;;4.88;3.22;;;1.00;99.90;;;;;;5031049;28;20195;-60
2021/01/05 02:30:21;;;;;;;4.10;2.83;;;1.00;99.90;;;;;;5030838;28;20242;-60
2021/01/05 02:32:57;;;;;;;6.95;2.70;;;1.00;99.90;;;;;;5033137;28;20187;-60
2021/01/05 02:35:49;;;;;;;5.30;2.97;;;1.10;99.90;;;;;;5050437;28;20177;-60
2021/01/05 02:38:15;;;;;;;4.40;2.65;;;1.10;99.90;;;;;;5044807;28;20174;-60
2021/01/05 02:41:00;;;;;;;5.38;2.88;;;1.00;99.90;;;;;;5051560;28;20246;-60
2021/01/05 02:43:38;;;;;;;4.60;3.05;;;1.00;99.90;;;;;;5051104;28;20203;-60
2021/01/05 02:46:07;;;;;;;5.03;2.65;;;1.00;99.90;;;;;;5051269;28;20171;-60
2021/01/05 02:48:53;;;;;;;5.38;3.15;;;1.10;99.90;;;;;;5049972;28;20186;-60
2021/01/05 02:51:33;;;;;;;4.90;2.70;;;1.00;99.90;;;;;;5050585;28;20163;-60
2021/01/05 02:54:16;;;;;;;4.95;2.70;;;1.00;99.90;;;;;;5050230;28;20552;-60
2021/01/05 02:57:34;;;;;;;5.40;2.90;;;1.00;99.90;;;;;;5051125;28;20174;-60
2021/01/05 03:00:25;;;;;;;4.18;2.70;;;1.00;99.90;;;;;;5044921;28;20193;-60
2021/01/05 03:03:20;;;;;;;5.18;3.00;;;1.00;99.90;;;;;;5049135;28;20206;-60
2021/01/05 03:06:10;;;;;;;5.32;3.13;;;1.00;99.90;;;;;;5054426;28;20186;-60
2021/01/05 03:08:41;;;;;;;3.15;2.55;;;1.00;99.90;;;;;;5048391;28;20191;-60
2021/01/05 03:11:08;;;;;;;4.57;3.05;;;1.00;99.90;;;;;;5037588;28;20159;-60
2021/01/05 03:13:58;;;;;;;4.38;2.97;;;1.00;99.90;;;;;;5036745;28;20178;-60
2021/01/05 03:16:35;;;;;;;4.80;3.30;;;0.90;99.90;;;;;;5047670;28;20629;-60
2021/01/05 03:19:40;;;;;;;8.35;3.00;;;0.90;99.90;;;;;;5036181;28;20209;-60
2021/01/05 03:22:07;;;;;;;4.72;2.90;;;1.00;99.90;;;;;;5053201;28;20619;-60
2021/01/05 03:24:33;;;;;;;4.30;2.85;;;1.00;99.90;;;;;;5053226;28;20187;-60
2021/01/05 03:26:59;;;;;;;4.38;3.03;;;0.90;99.90;;;;;;5052636;28;20226;-60
2021/01/05 03:29:25;;;;;;;4.95;3.03;;;0.90;99.90;;;;;;5052805;28;20182;-60
2021/01/05 03:31:54;;;;;;;6.55;3.13;;;0.90;99.90;;;;;;5052943;28;20171;-60
2021/01/05 03:34:20;;;;;;;4.45;2.90;;;0.90;99.90;;;;;;5052458;28;20186;-60
2021/01/05 03:36:46;;;;;;;5.03;3.30;;;0.90;99.90;;;;;;5051848;28;20662;-60
2021/01/05 03:39:13;;;;;;;4.43;2.85;;;0.90;99.90;;;;;;5051184;28;20197;-60
2021/01/05 03:41:41;;;;;;;4.75;2.58;;;0.90;99.90;;;;;;5054078;28;20171;-60
2021/01/05 03:44:07;;;;;;;4.35;2.88;;;0.90;99.90;;;;;;5053636;28;20206;-60
2021/01/05 03:46:33;;;;;;;5.63;3.42;;;0.90;99.90;;;;;;5053345;28;20201;-60
2021/01/05 03:49:00;;;;;;;5.43;3.15;;;0.90;99.90;;;;;;5053342;28;20179;-60
2021/01/05 03:51:26;;;;;;;5.55;2.97;;;0.90;99.90;;;;;;5053600;28;20174;-60
2021/01/05 03:53:52;;;;;;;4.70;2.85;;;0.90;99.90;;;;;;5053374;28;20183;-60
2021/01/05 03:56:18;;;;;;;5.20;3.20;;;0.80;99.90;;;;;;5053530;28;20179;-60
2021/01/05 03:58:44;;;;;;;4.00;2.92;;;0.80;99.90;;;;;;5053691;28;20170;-60
2021/01/05 04:01:10;;;;;;;7.28;3.00;;;0.80;99.90;;;;;;5053337;28;20178;-60
2021/01/05 04:03:37;;;;;;;5.45;3.25;;;0.80;99.90;;;;;;5052787;28;20217;-60
2021/01/05 04:06:04;;;;;;;6.28;3.08;;;0.90;99.90;;;;;;5052154;28;20186;-60
2021/01/05 04:08:30;;;;;;;5.03;2.70;;;0.90;99.90;;;;;;5052747;28;20183;-60
2021/01/05 04:10:56;;;;;;;5.00;3.10;;;0.90;99.90;;;;;;5053102;28;20179;-60
2021/01/05 04:13:22;;;;;;;4.85;3.10;;;0.90;99.90;;;;;;5053573;28;20206;-60
2021/01/05 04:15:48;;;;;;;4.70;3.05;;;0.80;99.90;;;;;;5053628;28;20542;-60
2021/01/05 04:18:15;;;;;;;4.47;2.85;;;0.90;99.90;;;;;;5053162;28;20178;-60
2021/01/05 04:20:41;;;;;;;6.18;3.25;;;0.90;99.90;;;;;;5052981;28;20197;-60
2021/01/05 04:23:07;;;;;;;4.63;2.88;;;0.90;99.90;;;;;;5052917;28;20207;-60
2021/01/05 04:25:33;;;;;;;5.35;3.33;;;0.90;99.90;;;;;;5052513;28;20210;-60
2021/01/05 04:27:59;;;;;;;5.95;3.47;;;0.90;99.90;;;;;;5052694;28;20182;-60
2021/01/05 04:30:30;;;;;;;5.18;3.30;;;0.90;99.90;;;;;;5052873;28;20212;-60
2021/01/05 04:32:59;;;;;;;4.22;3.15;;;0.90;99.90;;;;;;5049603;28;20159;-60
2021/01/05 04:35:25;;;;;;;5.43;3.42;;;0.90;99.90;;;;;;5052852;28;20171;-60
2021/01/05 04:37:51;;;;;;;6.68;3.70;;;0.90;99.90;;;;;;5052174;28;20174;-60
2021/01/05 04:40:25;;;;;;;6.07;3.72;;;0.90;99.90;;;;;;5052278;28;20175;-60
2021/01/05 04:43:17;;;;;;;7.30;3.78;;;0.90;99.90;;;;;;5052507;28;20526;-60
2021/01/05 04:46:17;;;;;;;6.05;3.53;;;0.90;99.90;;;;;;5037863;28;20162;-60
2021/01/05 04:49:02;;;;;;;5.93;3.80;;;0.90;99.90;;;;;;5045486;28;20191;-60
2021/01/05 04:51:39;;;;;;;7.10;3.95;;;0.90;99.90;;;;;;5047294;28;20192;-60
2021/01/05 04:54:19;;;;;;;5.10;3.38;;;0.90;99.90;;;;;;5049859;28;20630;-60
2021/01/05 04:57:03;;;;;;;7.93;4.07;;;0.90;99.90;;;;;;5052148;28;20170;-60
2021/01/05 04:59:41;;;;;;;6.60;3.75;;;0.90;99.90;;;;;;5051743;28;20190;-60
2021/01/05 05:02:31;;;;;;;6.70;4.22;;;1.00;99.90;;;;;;5042969;28;20162;-60
2021/01/05 05:05:03;;;;;;;8.98;4.35;;;0.90;99.90;;;;;;5061314;28;20190;-60
2021/01/05 05:07:58;;;;;;;7.03;4.60;;;0.90;99.90;;;;;;5052860;28;20170;-61
2021/01/05 05:10:31;;;;;;;7.03;4.57;;;0.90;99.90;;;;;;5037132;28;20194;-60
2021/01/05 05:13:02;;;;;;;7.80;4.63;;;0.90;99.90;;;;;;5035178;28;20170;-60
2021/01/05 05:15:31;;;;;;;9.50;5.03;;;0.90;99.90;;;;;;5052109;28;20527;-60
2021/01/05 05:18:08;;;;;;;7.35;4.97;;;0.90;99.90;;;;;;5051128;28;20182;-60
2021/01/05 05:21:06;;;;;;;8.38;4.85;;;0.90;99.90;;;;;;5050877;28;20170;-60
2021/01/05 05:23:34;;;;;;;8.77;5.25;;;0.90;99.90;;;;;;5052418;28;20218;-60
2021/01/05 05:26:08;;;;;;;8.23;5.35;;;0.90;99.90;;;;;;5052386;28;20242;-60
2021/01/05 05:28:51;;;;;;;9.18;5.50;;;0.90;99.90;;;;;;5034798;28;20635;-60
2021/01/05 05:31:20;;;;;;;9.75;4.95;;;1.00;99.90;;;;;;5019463;28;20505;-60
2021/01/05 05:33:46;;;;;;;9.25;5.78;;;1.00;99.90;;;;;;5031048;28;20163;-60
2021/01/05 05:36:49;;;;;;;9.38;4.97;;;1.00;99.90;;;;;;5031445;28;20176;-60
2021/01/05 05:39:42;;;;;;;9.95;5.32;;;1.00;99.90;;;;;;5032623;28;20163;-60
2021/01/05 05:42:20;;;;;;;8.52;5.57;;;1.00;99.90;;;;;;5020830;28;20184;-60
2021/01/05 05:44:48;;;;;;;10.90;5.68;;;1.00;99.90;;;;;;5015845;28;20504;-60
2021/01/05 05:47:24;;;;;;;8.18;5.47;;;1.00;99.90;;;;;;5031328;28;20166;-60
2021/01/05 05:50:05;;;;;;;9.43;6.20;;;1.10;99.90;;;;;;5032274;28;20167;-60
2021/01/05 05:52:53;;;;;;;9.75;5.78;;;1.10;99.90;;;;;;5031562;28;20167;-60
2021/01/05 05:55:41;;;;;;;10.20;5.90;;;1.00;99.90;;;;;;5032412;28;20662;-60
2021/01/05 05:58:08;;;;;;;7.88;5.28;;;1.10;99.90;;;;;;5032091;28;20508;-60
2021/01/05 06:00:36;;;;;;;9.05;6.03;;;1.10;99.90;;;;;;5025705;28;20536;-60
2021/01/05 06:03:03;;;;;;;9.15;5.50;;;1.10;99.90;;;;;;5031813;28;20262;-60
2021/01/05 06:05:35;;;;;;;9.60;5.70;;;1.10;99.90;;;;;;5032068;28;20571;-60
2021/01/05 06:08:02;;;;;;;8.10;5.25;;;1.10;99.90;;;;;;5032160;28;20156;-60
2021/01/05 06:10:28;;;;;;;10.85;5.90;;;1.10;99.90;;;;;;5032158;28;20176;-60
2021/01/05 06:12:55;;;;;;;9.00;5.65;;;1.10;99.90;;;;;;5032159;28;20171;-60
2021/01/05 06:15:21;;;;;;;8.35;4.72;;;1.10;99.90;;;;;;5031953;28;20175;-60
2021/01/05 06:17:47;;;;;;;9.02;5.68;;;1.10;99.90;;;;;;5031807;28;20629;-60
2021/01/05 06:20:14;;;;;;;9.02;5.60;;;1.10;99.90;;;;;;5032380;28;20199;-60
2021/01/05 06:22:40;;;;;;;9.35;5.50;;;1.20;99.90;;;;;;5035961;28;20171;-60
2021/01/05 06:25:07;;;;;;;9.00;5.32;;;1.20;99.90;;;;;;5051127;28;20705;-60
2021/01/05 06:27:33;;;;;;;8.70;5.15;;;1.10;99.90;;;;;;5056819;28;20190;-60
2021/01/05 06:29:59;;;;;;;9.48;5.05;;;1.20;99.90;;;;;;5033597;28;20183;-60
2021/01/05 06:32:25;;;;;;;9.65;5.63;;;1.20;99.90;;;;;;5035612;28;20650;-60
2021/01/05 06:34:52;;;;;;;8.50;4.70;;;1.20;99.90;;;;;;5035581;28;20728;-60
2021/01/05 06:37:18;;;;;;;8.57;5.07;;;1.20;99.90;;;;;;5035705;28;20190;-60
2021/01/05 06:39:44;;;;;;;9.38;5.40;;;1.20;99.90;;;;;;5047876;28;20179;-60
2021/01/05 06:42:10;;;;;;;7.95;4.45;;;1.20;99.90;;;;;;5050053;28;20187;-60
2021/01/05 06:44:36;;;;;;;8.75;5.10;;;1.20;99.90;;;;;;5053965;28;20550;-60
2021/01/05 06:47:03;;;;;;;6.53;4.60;;;1.10;99.90;;;;;;5052941;28;20690;-60
2021/01/05 06:49:29;;;;;;;8.05;4.70;;;1.20;99.90;;;;;;5054696;28;20187;-60
2021/01/05 06:51:56;;;;;;;9.93;4.72;;;1.20;99.90;;;;;;5054105;28;20542;-60
2021/01/05 06:54:23;;;;;;;5.95;4.28;;;1.20;99.90;;;;;;5055032;28;20167;-60
2021/01/05 06:56:50;;;;;;;7.10;4.65;;;1.20;99.90;;;;;;5054297;28;20488;-60
2021/01/05 06:59:16;;;;;;;8.85;4.60;;;1.20;99.90;;;;;;5055058;28;20171;-60
2021/01/05 07:01:51;;;;;;;7.00;4.78;;;1.20;99.90;;;;;;5055370;28;20167;-60
2021/01/05 07:04:17;;;;;;;8.75;4.10;;;1.10;99.90;;;;;;5054854;28;20194;-60
2021/01/05 07:06:44;;;;;;;7.53;4.80;;;1.10;99.90;;;;;;5054386;28;20179;-60
2021/01/05 07:09:10;;;;;;;8.52;4.90;;;1.10;99.90;;;;;;5054847;28;20175;-60
2021/01/05 07:11:36;;;;;;;7.18;4.35;;;1.10;99.90;;;;;;5053565;28;20179;-60
2021/01/05 07:14:03;;;;;;;8.02;4.60;;;1.10;99.90;;;;;;5052895;28;20265;-60
2021/01/05 07:16:29;;;;;;;6.65;3.95;;;1.10;99.90;;;;;;5054582;28;20167;-60
2021/01/05 07:18:55;;;;;;;7.10;4.03;;;1.10;99.90;;;;;;5053999;28;20553;-60
2021/01/05 07:21:21;;;;;;;7.35;4.05;;;1.20;99.90;;;;;;5053453;28;20648;-61
2021/01/05 07:23:47;;;;;;;6.90;4.18;;;1.20;99.90;;;;;;5053885;28;20226;-60
2021/01/05 07:26:13;;;;;;;8.23;4.53;;;1.20;99.90;;;;;;5053097;28;20215;-60
2021/01/05 07:28:40;;;;;;;7.13;4.47;;;1.20;99.90;;;;;;5053891;28;20179;-61
2021/01/05 07:31:06;;;;;;;8.18;3.88;;;1.20;99.90;;;;;;5064469;28;20181;-61
2021/01/05 07:33:32;;;;;;;6.68;4.28;;;1.10;99.90;;;;;;5074064;28;20178;-60
2021/01/05 07:36:02;;;;;;;6.35;3.83;;;1.20;99.90;;;;;;5073258;28;20186;-60
2021/01/05 07:38:28;;;;;;;6.18;3.63;;;1.20;99.90;;;;;;5056293;28;20189;-61
2021/01/05 07:40:54;;;;;;;5.07;3.38;;;1.20;99.90;;;;;;5060244;28;20174;-60
2021/01/05 07:43:21;;;;;;;7.82;4.10;;;1.20;99.90;;;;;;5051534;28;20222;-60
2021/01/05 07:45:47;;;;;;;5.85;3.58;;;1.20;99.90;;;;;;5055947;28;20534;-60
2021/01/05 07:48:13;;;;;;;10.60;3.65;;;1.20;99.90;;;;;;5054059;28;20178;-60
2021/01/05 07:50:39;;;;;;;7.63;4.05;;;1.20;99.90;;;;;;5052828;28;20198;-60
2021/01/05 07:53:05;;;;;;;4.60;3.15;;;1.20;99.90;;;;;;5053580;28;20167;-60
2021/01/05 07:55:33;;;;;;;4.93;3.25;;;1.20;99.90;;;;;;5054023;28;20653;-60
2021/01/05 07:57:59;;;;;;;6.90;3.65;;;1.30;99.90;;;;;;5053462;28;20658;-60
2021/01/05 08:00:27;;;;;;;6.78;3.40;;;1.30;99.90;;;;;;5053800;28;20528;-60
2021/01/05 08:02:53;;;;;;;5.82;3.40;;;1.30;99.90;;;;;;5052969;28;20175;-60
2021/01/05 08:05:22;;;;;;;6.40;3.22;;;1.20;99.90;;;;;;5053469;28;20178;-60
2021/01/05 08:07:48;;;;;;;5.93;3.45;;;1.30;99.90;;;;;;5052059;28;20163;-60
2021/01/05 08:10:26;;;;;;;6.53;3.85;;;1.30;99.90;;;;;;5052209;28;20191;-60
2021/01/05 08:12:52;;;;;;;4.45;2.85;;;1.30;99.90;;;;;;5053043;28;20647;-60
2021/01/05 08:15:20;;;;;;;6.50;3.58;;;1.30;99.90;;;;;;5052118;28;20175;-60
2021/01/05 08:17:46;;;;;;;7.10;3.42;;;1.30;99.90;;;;;;5051175;28;20171;-60
2021/01/05 08:20:16;;;;;;;5.32;3.47;;;1.30;99.90;;;;;;5056089;28;20213;-60
2021/01/05 08:22:42;;;;;;;4.20;2.90;;;1.30;99.90;;;;;;5067797;28;20176;-60
2021/01/05 08:25:09;;;;;;;5.05;3.00;;;1.40;99.90;;;;;;5050699;28;20237;-60
2021/01/05 08:27:35;;;;;;;6.93;3.00;;;1.40;99.90;;;;;;5051866;28;20198;-60
2021/01/05 08:30:02;;;;;;;4.90;3.15;;;1.40;99.90;;;;;;5050183;28;20651;-60
2021/01/05 08:32:28;;;;;;;4.75;3.10;;;1.40;99.90;;;;;;5058224;28;20182;-60
2021/01/05 08:34:54;;;;;;;5.68;3.13;;;1.40;99.90;;;;;;5065495;28;20194;-60
2021/01/05 08:37:20;;;;;;;5.38;2.97;;;1.40;99.90;;;;;;5051254;28;20205;-60
2021/01/05 08:39:46;;;;;;;7.00;3.20;;;1.40;99.90;;;;;;5051795;28;20179;-60
2021/01/05 08:42:12;;;;;;;4.82;2.65;;;1.40;99.90;;;;;;5050881;28;20570;-60
2021/01/05 08:44:39;;;;;;;4.15;2.67;;;1.40;99.90;;;;;;5051660;28;20206;-60
2021/01/05 08:47:05;;;;;;;5.30;3.03;;;1.40;99.90;;;;;;5034013;28;20187;-60
2021/01/05 08:49:32;;;;;;;3.60;2.50;;;1.40;99.90;;;;;;5052098;28;20197;-60
2021/01/05 08:51:58;;;;;;;6.00;2.95;;;1.40;99.90;;;;;;5050640;28;20166;-60
2021/01/05 08:54:24;;;;;;;4.43;2.97;;;1.40;99.90;;;;;;5051122;28;20175;-60
2021/01/05 08:56:54;;;;;;;4.05;2.65;;;1.50;99.90;;;;;;5051569;28;20198;-60
2021/01/05 08:59:21;;;;;;;6.43;2.90;;;1.50;99.90;;;;;;5050312;28;20182;-60
2021/01/05 09:01:47;;;;;;;3.70;2.63;;;1.50;99.90;;;;;;5051326;28;20663;-60
2021/01/05 09:04:13;;;;;;;4.35;2.65;;;1.50;99.90;;;;;;5051539;28;20214;-60
2021/01/05 09:06:39;;;;;;;4.35;2.90;;;1.50;99.90;;;;;;5052519;28;20177;-60
2021/01/05 09:09:06;;;;;;;4.57;2.92;;;1.50;99.90;;;;;;5052499;28;20166;-60
2021/01/05 09:11:32;;;;;;;8.55;3.00;;;1.50;99.90;;;;;;5051208;28;20183;-60
2021/01/05 09:13:58;;;;;;;4.63;2.88;;;1.50;99.90;;;;;;5050616;28;20561;-60
2021/01/05 09:16:28;;;;;;;4.00;2.72;;;1.50;99.90;;;;;;5052318;28;20179;-60
2021/01/05 09:18:54;;;;;;;4.25;2.70;;;1.60;99.90;;;;;;5051543;28;20210;-60
2021/01/05 09:21:24;;;;;;;5.75;3.10;;;1.50;99.90;;;;;;5051428;28;20178;-60
2021/01/05 09:23:51;;;;;;;7.65;2.85;;;1.60;99.90;;;;;;5051257;28;20223;-60
2021/01/05 09:26:27;;;;;;;5.43;3.13;;;1.60;99.90;;;;;;5039898;28;20569;-60
2021/01/05 09:28:53;;;;;;;4.82;3.13;;;1.60;99.90;;;;;;5051425;28;20174;-60
2021/01/05 09:31:20;;;;;;;8.18;3.30;;;1.60;99.90;;;;;;5051368;28;20639;-60
2021/01/05 09:33:46;;;;;;;5.18;2.85;;;1.60;99.90;;;;;;5050558;28;20545;-60
2021/01/05 09:36:13;;;;;;;4.80;3.13;;;1.60;99.90;;;;;;5051817;28;20166;-60
2021/01/05 09:38:39;;;;;;;5.40;3.00;;;1.70;99.90;;;;;;5051079;28;20170;-60
2021/01/05 09:41:07;;;;;;;3.97;2.90;;;1.70;99.90;;;;;;5050520;28;20174;-60
2021/01/05 09:43:33;;;;;;;3.70;2.58;;;1.70;99.90;;;;;;5050478;28;20201;-60
2021/01/05 09:45:59;;;;;;;3.92;2.70;;;1.70;99.90;;;;;;5048425;28;20541;-61
2021/01/05 09:48:26;;;;;;;4.47;3.13;;;1.70;99.90;;;;;;5051411;28;20646;-60
2021/01/05 09:50:52;;;;;;;4.30;2.75;;;1.70;99.90;;;;;;5051381;28;20179;-60
2021/01/05 09:53:18;;;;;;;5.13;3.13;;;1.70;99.90;;;;;;5049330;28;20190;-60
2021/01/05 09:55:44;;;;;;;5.65;3.42;;;1.70;99.90;;;;;;5050853;28;20189;-61
2021/01/05 09:58:10;;;;;;;5.43;3.05;;;1.80;99.90;;;;;;5049533;28;20179;-60
2021/01/05 10:00:36;;;;;;;4.10;2.53;;;1.70;99.90;;;;;;5051204;28;20177;-61
2021/01/05 10:03:02;;;;;;;5.07;3.05;;;1.70;99.90;;;;;;5050967;28;20178;-61
2021/01/05 10:05:29;;;;;;;4.20;2.80;;;1.70;99.90;;;;;;5049868;28;20198;-60
2021/01/05 10:07:56;;;;;;;5.55;3.30;;;1.80;99.90;;;;;;5055971;28;20174;-61
2021/01/05 10:10:24;;;;;;;4.93;2.60;;;1.80;99.90;;;;;;5054902;28;20534;-61
2021/01/05 10:12:50;;;;;;;5.07;3.08;;;1.80;99.90;;;;;;5053212;28;20190;-60
2021/01/05 10:15:19;;;;;;;4.90;3.00;;;1.80;99.90;;;;;;5053592;28;20181;-60
2021/01/05 10:17:45;;;;;;;4.85;3.00;;;1.70;99.90;;;;;;5055155;28;20179;-60
2021/01/05 10:20:12;;;;;;;5.88;3.58;;;1.80;99.90;;;;;;5054926;28;20186;-61
2021/01/05 10:22:38;;;;;;;4.43;2.97;;;1.80;99.90;;;;;;5055374;28;20178;-60
2021/01/05 10:25:06;;;;;;;6.40;3.20;;;1.80;99.90;;;;;;5055111;28;20222;-61
2021/01/05 10:27:33;;;;;;;3.40;2.45;;;1.90;99.90;;;;;;5055239;28;20186;-61
2021/01/05 10:29:59;;;;;;;4.65;3.03;;;1.90;99.90;;;;;;5058263;28;20230;-60
2021/01/05 10:32:25;;;;;;;6.15;3.47;;;1.90;99.90;;;;;;5053833;28;20175;-61
2021/01/05 10:34:51;;;;;;;5.18;3.10;;;1.90;99.90;;;;;;5052528;28;20550;-61
2021/01/05 10:37:17;;;;;;;6.70;3.45;;;2.00;99.90;;;;;;5052220;28;20167;-61
2021/01/05 10:39:43;;;;;;;4.60;3.17;;;2.00;99.90;;;;;;5053076;28;20643;-60
2021/01/05 10:42:10;;;;;;;4.65;3.05;;;2.00;99.90;;;;;;5054579;28;20186;-60
2021/01/05 10:44:36;;;;;;;6.53;3.22;;;2.00;99.90;;;;;;5054764;28;20678;-60
2021/01/05 10:47:03;;;;;;;4.40;3.13;;;2.00;99.90;;;;;;5054153;28;20182;-60
2021/01/05 10:49:30;;;;;;;4.55;3.17;;;2.10;99.90;;;;;;5053285;28;20194;-60
2021/01/05 10:51:57;;;;;;;5.35;3.38;;;2.00;99.90;;;;;;5056086;28;20647;-60
2021/01/05 10:54:26;;;;;;;5.32;3.13;;;2.00;99.90;;;;;;5060911;28;20521;-60
2021/01/05 10:57:02;;;;;;;4.05;2.88;;;2.00;99.90;;;;;;5061797;28;20167;-60
2021/01/05 10:59:29;;;;;;;5.10;3.15;;;2.10;99.90;;;;;;5053565;28;20536;-60
2021/01/05 11:01:56;;;;;;;4.45;2.88;;;2.10;99.90;;;;;;5054590;28;20197;-60
2021/01/05 11:04:23;;;;;;;6.05;3.03;;;2.10;99.90;;;;;;5053799;28;20552;-60
2021/01/05 11:07:01;;;;;;;5.03;3.15;;;2.10;99.90;;;;;;5052875;28;20178;-60
2021/01/05 11:09:27;;;;;;;4.20;2.88;;;2.00;99.90;;;;;;5052103;28;20166;-60
2021/01/05 11:11:57;;;;;;;5.47;3.05;;;2.10;99.90;;;;;;5053979;28;20182;-60
2021/01/05 11:14:23;;;;;;;4.70;3.03;;;2.10;99.90;;;;;;5052246;28;20178;-60
2021/01/05 11:16:49;;;;;;;4.53;2.70;;;2.20;99.90;;;;;;5050997;28;20183;-60
2021/01/05 11:19:16;;;;;;;4.10;3.13;;;2.10;99.90;;;;;;5053110;28;20210;-60
2021/01/05 11:21:54;;;;;;;5.55;2.85;;;2.20;99.90;;;;;;5053362;28;20205;-60
2021/01/05 11:24:21;;;;;;;8.15;2.83;;;2.20;99.90;;;;;;5054241;28;20229;-60
2021/01/05 11:26:48;;;;;;;4.65;2.67;;;2.30;99.90;;;;;;5054440;28;20237;-60
2021/01/05 11:29:14;;;;;;;4.57;2.85;;;2.20;99.90;;;;;;5054210;28;20632;-60
2021/01/05 11:31:40;;;;;;;3.35;2.53;;;2.20;99.90;;;;;;5054369;28;20170;-60
2021/01/05 11:34:06;;;;;;;5.47;2.60;;;2.30;99.90;;;;;;5053708;28;20182;-60
2021/01/05 11:36:32;;;;;;;4.18;2.72;;;2.20;99.90;;;;;;5054201;28;20185;-59
2021/01/05 11:38:59;;;;;;;4.28;3.13;;;2.20;99.90;;;;;;5052730;28;20575;-59
2021/01/05 11:41:30;;;;;;;4.65;2.60;;;2.20;99.90;;;;;;5054146;28;20186;-59
2021/01/05 11:43:57;;;;;;;4.05;2.67;;;2.20;99.90;;;;;;5051953;28;20566;-59
2021/01/05 11:46:23;;;;;;;4.40;2.42;;;2.20;99.90;;;;;;5050637;28;20187;-60
2021/01/05 11:48:49;;;;;;;5.60;2.97;;;2.20;99.90;;;;;;5047594;28;20538;-60
2021/01/05 11:51:20;;;;;;;4.70;2.78;;;2.30;99.90;;;;;;5052992;28;20690;-59
2021/01/05 11:53:46;;;;;;;4.45;2.65;;;2.20;99.90;;;;;;5032813;28;20183;-59
2021/01/05 11:56:26;;;;;;;3.80;2.40;;;2.20;99.90;;;;;;5053241;28;20167;-60
2021/01/05 11:58:52;;;;;;;4.53;2.78;;;2.20;99.90;;;;;;5049922;28;20539;-59
2021/01/05 12:01:18;;;;;;;7.30;2.72;;;2.20;99.90;;;;;;5051729;28;20174;-60
2021/01/05 12:03:44;;;;;;;4.65;3.00;;;2.30;99.90;;;;;;5051848;28;20186;-59
2021/01/05 12:06:15;;;;;;;187.93;95.78;;;2.20;99.90;;;;;;5050240;28;20245;-59
2021/01/05 12:08:42;;;;;;;69.13;30.58;;;2.20;99.90;;;;;;5051396;28;20182;-59
2021/01/05 12:11:08;;;;;;;14.35;8.65;;;2.20;99.90;;;;;;5051729;28;20182;-59
2021/01/05 12:13:34;;;;;;;18.42;8.90;;;2.20;99.90;;;;;;5052939;28;20651;-57
2021/01/05 12:16:00;;;;;;;8.35;4.72;;;2.30;99.90;;;;;;5051628;28;20194;-59
2021/01/05 12:18:27;;;;;;;16.17;8.10;;;2.20;99.90;;;;;;5051831;28;20202;-59
2021/01/05 12:20:53;;;;;;;12.32;6.70;;;2.30;99.90;;;;;;5053381;28;20187;-58
2021/01/05 12:23:19;;;;;;;55.15;28.33;;;2.10;99.90;;;;;;5052861;28;20201;-59
2021/01/05 12:25:45;;;;;;;39.47;18.27;;;2.10;99.90;;;;;;5053987;28;20233;-59
2021/01/05 12:28:11;;;;;;;9.52;6.03;;;2.10;99.90;;;;;;5054232;28;20167;-59
2021/01/05 12:30:39;;;;;;;25.52;11.77;;;2.00;99.90;;;;;;5054875;28;20651;-59
2021/01/05 12:33:05;;;;;;;71.05;30.40;;;2.10;99.90;;;;;;5054332;28;20175;-58
2021/01/05 12:35:31;;;;;;;370.27;100.53;;;2.00;99.90;;;;;;5047139;28;20666;-59
2021/01/05 12:37:57;;;;;;;11.23;7.65;;;2.00;99.90;;;;;;5051138;28;20186;-59
2021/01/05 12:40:24;;;;;;;14.95;8.38;;;2.00;99.90;;;;;;5050961;28;20195;-57
2021/01/05 12:42:50;;;;;;;9.85;6.00;;;1.90;99.90;;;;;;5048878;28;20190;-58
2021/01/05 12:45:16;;;;;;;11.00;5.85;;;1.90;99.90;;;;;;5046169;28;20629;-58
2021/01/05 12:47:43;;;;;;;10.15;6.45;;;2.00;99.90;;;;;;5050297;28;20242;-57
2021/01/05 12:50:09;;;;;;;11.20;5.22;;;1.90;99.90;;;;;;5049600;28;20182;-58
2021/01/05 12:52:36;;;;;;;34.40;18.20;;;1.90;99.90;;;;;;5051639;28;20175;-58
2021/01/05 12:55:03;;;;;;;11.48;7.55;;;1.90;99.90;;;;;;5050485;28;20663;-58
2021/01/05 12:57:30;;;;;;;8.57;5.15;;;1.90;99.90;;;;;;5050635;28;20249;-59
2021/01/05 12:59:56;;;;;;;9.35;6.22;;;1.80;99.90;;;;;;5051507;28;20182;-59
2021/01/05 13:02:24;;;;;;;8.85;5.00;;;1.80;99.90;;;;;;5047354;28;20186;-59
2021/01/05 13:04:50;;;;;;;10.80;6.72;;;1.80;99.90;;;;;;5015863;28;20222;-60
2021/01/05 13:07:18;;;;;;;18.45;10.93;;;1.90;99.90;;;;;;5049985;28;20254;-59
2021/01/05 13:09:44;;;;;;;38.33;22.40;;;1.90;99.90;;;;;;5050110;28;20175;-59